Time;durP1;ratioP1;P1;durP2;ratioP2;P2;SDS_P1;SDS_P2;PMS_P1;PMS_P2;Temp;Humidity;BMP_temperature;BMP_pressure;BME280_temperature;BME280_humidity;BME280_pressure;Samples;Min_cycle;Max_cycle;Signal;HPM_P1;HPM_P2
2023/03/19 00:02:25;;;;;;;;;;;;;;;;;;5009812;28;20290;-59
2023/03/19 00:04:51;;;;;;;;;;;;;;;;;;5009718;28;19910;-59
2023/03/19 00:07:16;;;;;;;;;;;;;;;;;;5009000;28;20006;-59
2023/03/19 00:09:42;;;;;;;;;;;;;;;;;;5009788;28;19916;-60
2023/03/19 00:12:08;;;;;;;;;;;;;;;;;;5009348;28;20000;-59
2023/03/19 00:14:34;;;;;;;;;;;;;;;;;;5009172;28;19921;-59
2023/03/19 00:17:00;;;;;;;;;;;;;;;;;;5009437;28;20020;-59
2023/03/19 00:19:26;;;;;;;;;;;;;;;;;;5009261;28;20345;-59
2023/03/19 00:21:52;;;;;;;;;;;;;;;;;;5009329;28;19917;-59
2023/03/19 00:24:19;;;;;;;;;;;;;;;;;;5009181;28;19940;-59
2023/03/19 00:26:45;;;;;;;;;;;;;;;;;;5009140;28;20372;-59
2023/03/19 00:29:11;;;;;;;;;;;;;;;;;;5009106;28;19914;-59
2023/03/19 00:31:37;;;;;;;;;;;;;;;;;;5009113;28;19921;-59
2023/03/19 00:34:03;;;;;;;;;;;;;;;;;;5009025;28;20281;-59
2023/03/19 00:36:29;;;;;;;;;;;;;;;;;;5009719;28;19936;-59
2023/03/19 00:38:55;;;;;;;;;;;;;;;;;;5009190;28;19918;-59
2023/03/19 00:41:21;;;;;;;;;;;;;;;;;;5009496;28;19914;-60
2023/03/19 00:43:47;;;;;;;;;;;;;;;;;;5008642;28;19925;-59
2023/03/19 00:46:13;;;;;;;;;;;;;;;;;;5009497;28;19936;-59
2023/03/19 00:48:39;;;;;;;;;;;;;;;;;;5008945;28;20000;-59
2023/03/19 00:51:05;;;;;;;;;;;;;;;;;;5008933;28;20512;-59
2023/03/19 00:53:31;;;;;;;;;;;;;;;;;;5009016;28;20001;-59
2023/03/19 00:55:57;;;;;;;;;;;;;;;;;;5008727;28;20060;-59
2023/03/19 00:58:23;;;;;;;;;;;;;;;;;;5007203;28;20378;-59
2023/03/19 01:00:49;;;;;;;;;;;;;;;;;;5008806;28;19917;-59
2023/03/19 01:03:15;;;;;;;;;;;;;;;;;;5008785;28;20380;-59
2023/03/19 01:05:40;;;;;;;;;;;;;;;;;;5008890;28;19920;-59
2023/03/19 01:08:06;;;;;;;;;;;;;;;;;;5008992;28;20378;-59
2023/03/19 01:10:33;;;;;;;;;;;;;;;;;;5008644;28;19996;-59
2023/03/19 01:12:59;;;;;;;;;;;;;;;;;;5008245;28;19913;-59
2023/03/19 01:15:25;;;;;;;;;;;;;;;;;;5008581;28;20394;-59
2023/03/19 01:17:50;;;;;;;;;;;;;;;;;;5009054;28;19939;-59
2023/03/19 01:20:17;;;;;;;;;;;;;;;;;;5012493;28;20290;-59
2023/03/19 01:22:43;;;;;;;;;;;;;;;;;;5012206;28;20309;-59
2023/03/19 01:25:10;;;;;;;;;;;;;;;;;;5012050;28;20457;-60
2023/03/19 01:27:36;;;;;;;;;;;;;;;;;;5012170;28;19917;-59
2023/03/19 01:30:01;;;;;;;;;;;;;;;;;;5012414;28;19917;-59
2023/03/19 01:32:27;;;;;;;;;;;;;;;;;;5012968;28;19918;-59
2023/03/19 01:34:53;;;;;;;;;;;;;;;;;;5011300;28;20385;-59
2023/03/19 01:37:19;;;;;;;;;;;;;;;;;;5012278;28;19990;-59
2023/03/19 01:39:45;;;;;;;;;;;;;;;;;;5012500;28;20424;-59
2023/03/19 01:42:11;;;;;;;;;;;;;;;;;;5012184;28;19917;-59
2023/03/19 01:44:37;;;;;;;;;;;;;;;;;;5012123;28;19960;-59
2023/03/19 01:47:03;;;;;;;;;;;;;;;;;;5012330;28;19953;-59
2023/03/19 01:49:29;;;;;;;;;;;;;;;;;;5011500;28;19920;-60
2023/03/19 01:51:54;;;;;;;;;;;;;;;;;;5012259;28;20671;-59
2023/03/19 01:54:20;;;;;;;;;;;;;;;;;;5012122;28;20420;-59
2023/03/19 01:56:46;;;;;;;;;;;;;;;;;;5011437;28;19914;-59
2023/03/19 01:59:12;;;;;;;;;;;;;;;;;;5011958;28;19909;-59
2023/03/19 02:01:38;;;;;;;;;;;;;;;;;;5011557;28;20333;-59
2023/03/19 02:04:04;;;;;;;;;;;;;;;;;;5011523;28;19916;-59
2023/03/19 02:06:31;;;;;;;;;;;;;;;;;;5011574;28;20414;-59
2023/03/19 02:08:57;;;;;;;;;;;;;;;;;;5011633;28;19910;-59
2023/03/19 02:11:23;;;;;;;;;;;;;;;;;;5012142;28;19964;-59
2023/03/19 02:13:49;;;;;;;;;;;;;;;;;;5011478;28;19925;-59
2023/03/19 02:16:15;;;;;;;;;;;;;;;;;;5011836;28;20011;-59
2023/03/19 02:18:41;;;;;;;;;;;;;;;;;;5011605;28;19937;-59
2023/03/19 02:21:07;;;;;;;;;;;;;;;;;;5011580;28;20373;-59
2023/03/19 02:23:33;;;;;;;;;;;;;;;;;;5011550;28;19968;-59
2023/03/19 02:25:59;;;;;;;;;;;;;;;;;;5011527;28;19909;-59
2023/03/19 02:28:25;;;;;;;;;;;;;;;;;;5011104;28;19906;-60
2023/03/19 02:30:51;;;;;;;;;;;;;;;;;;5010773;28;19976;-59
2023/03/19 02:33:17;;;;;;;;;;;;;;;;;;5011637;28;19920;-60
2023/03/19 02:35:42;;;;;;;;;;;;;;;;;;5009908;28;19937;-60
2023/03/19 02:38:08;;;;;;;;;;;;;;;;;;5011268;28;20301;-60
2023/03/19 02:40:34;;;;;;;;;;;;;;;;;;5010803;28;19910;-60
2023/03/19 02:43:00;;;;;;;;;;;;;;;;;;5011091;28;19914;-60
2023/03/19 02:45:26;;;;;;;;;;;;;;;;;;5011220;28;20015;-60
2023/03/19 02:47:52;;;;;;;;;;;;;;;;;;5011155;28;19913;-60
2023/03/19 02:50:18;;;;;;;;;;;;;;;;;;5010682;28;19937;-60
2023/03/19 02:52:44;;;;;;;;;;;;;;;;;;5010869;28;19916;-59
2023/03/19 02:55:10;;;;;;;;;;;;;;;;;;5010450;28;19921;-59
2023/03/19 02:57:36;;;;;;;;;;;;;;;;;;5010822;28;20397;-59
2023/03/19 03:00:03;;;;;;;;;;;;;;;;;;5010355;28;19924;-59
2023/03/19 03:02:29;;;;;;;;;;;;;;;;;;5010669;28;19913;-59
2023/03/19 03:04:55;;;;;;;;;;;;;;;;;;5010363;28;19959;-59
2023/03/19 03:07:21;;;;;;;;;;;;;;;;;;5010682;28;19913;-59
2023/03/19 03:09:47;;;;;;;;;;;;;;;;;;5010411;28;19910;-59
2023/03/19 03:12:13;;;;;;;;;;;;;;;;;;5010960;28;19914;-59
2023/03/19 03:14:40;;;;;;;;;;;;;;;;;;5010194;28;19956;-58
2023/03/19 03:17:07;;;;;;;;;;;;;;;;;;5010435;28;19921;-58
2023/03/19 03:19:33;;;;;;;;;;;;;;;;;;5008783;28;19913;-58
2023/03/19 03:21:59;;;;;;;;;;;;;;;;;;5010141;28;19920;-59
2023/03/19 03:24:25;;;;;;;;;;;;;;;;;;5010439;28;19972;-59
2023/03/19 03:26:51;;;;;;;;;;;;;;;;;;5010775;28;19952;-59
2023/03/19 03:29:17;;;;;;;;;;;;;;;;;;5010452;28;19918;-59
2023/03/19 03:31:43;;;;;;;;;;;;;;;;;;5010312;28;19918;-59
2023/03/19 03:34:09;;;;;;;;;;;;;;;;;;5009846;28;20016;-59
2023/03/19 03:36:35;;;;;;;;;;;;;;;;;;5009940;28;20000;-59
2023/03/19 03:39:03;;;;;;;;;;;;;;;;;;5008970;28;20377;-59
2023/03/19 03:41:29;;;;;;;;;;;;;;;;;;5008028;28;20333;-59
2023/03/19 03:43:55;;;;;;;;;;;;;;;;;;5009830;28;19913;-59
2023/03/19 03:46:21;;;;;;;;;;;;;;;;;;5010027;28;20283;-59
2023/03/19 03:48:48;;;;;;;;;;;;;;;;;;5009626;28;20004;-59
2023/03/19 03:51:14;;;;;;;;;;;;;;;;;;5010239;28;20374;-59
2023/03/19 03:53:40;;;;;;;;;;;;;;;;;;5009886;28;20000;-59
2023/03/19 03:56:06;;;;;;;;;;;;;;;;;;5010111;28;19916;-59
2023/03/19 03:58:32;;;;;;;;;;;;;;;;;;5009675;28;20071;-59
2023/03/19 04:00:58;;;;;;;;;;;;;;;;;;5009431;28;19964;-59
2023/03/19 04:03:24;;;;;;;;;;;;;;;;;;5010141;28;19909;-59
2023/03/19 04:05:50;;;;;;;;;;;;;;;;;;5009926;28;19956;-59
2023/03/19 04:08:16;;;;;;;;;;;;;;;;;;5009295;28;19918;-59
2023/03/19 04:10:42;;;;;;;;;;;;;;;;;;5009591;28;20373;-59
2023/03/19 04:13:08;;;;;;;;;;;;;;;;;;5009493;28;19964;-59
2023/03/19 04:15:34;;;;;;;;;;;;;;;;;;5009630;28;20025;-59
2023/03/19 04:18:00;;;;;;;;;;;;;;;;;;5010326;28;19910;-59
2023/03/19 04:20:26;;;;;;;;;;;;;;;;;;5009801;28;19948;-59
2023/03/19 04:22:52;;;;;;;;;;;;;;;;;;5009580;28;20427;-59
2023/03/19 04:25:18;;;;;;;;;;;;;;;;;;5010165;28;19909;-59
2023/03/19 04:27:44;;;;;;;;;;;;;;;;;;5009544;28;19910;-59
2023/03/19 04:30:10;;;;;;;;;;;;;;;;;;5009458;28;20464;-59
2023/03/19 04:32:36;;;;;;;;;;;;;;;;;;5009418;28;19957;-59
2023/03/19 04:35:02;;;;;;;;;;;;;;;;;;5008872;28;19925;-59
2023/03/19 04:37:28;;;;;;;;;;;;;;;;;;5009297;28;20438;-59
2023/03/19 04:39:54;;;;;;;;;;;;;;;;;;5009245;28;19916;-59
2023/03/19 04:42:20;;;;;;;;;;;;;;;;;;5009285;28;19956;-59
2023/03/19 04:44:46;;;;;;;;;;;;;;;;;;5009307;28;19917;-59
2023/03/19 04:47:12;;;;;;;;;;;;;;;;;;5009507;28;19988;-59
2023/03/19 04:49:38;;;;;;;;;;;;;;;;;;5009286;28;19916;-59
2023/03/19 04:52:05;;;;;;;;;;;;;;;;;;5009523;28;20301;-59
2023/03/19 04:54:30;;;;;;;;;;;;;;;;;;5012827;28;20012;-59
2023/03/19 04:56:56;;;;;;;;;;;;;;;;;;5012970;28;20004;-59
2023/03/19 04:59:22;;;;;;;;;;;;;;;;;;5013079;28;19913;-59
2023/03/19 05:01:48;;;;;;;;;;;;;;;;;;5012899;28;19976;-59
2023/03/19 05:04:14;;;;;;;;;;;;;;;;;;5013103;28;19920;-59
2023/03/19 05:06:40;;;;;;;;;;;;;;;;;;5012801;28;19959;-59
2023/03/19 05:09:06;;;;;;;;;;;;;;;;;;5012791;28;19918;-59
2023/03/19 05:11:32;;;;;;;;;;;;;;;;;;5012815;28;19917;-59
2023/03/19 05:13:58;;;;;;;;;;;;;;;;;;5012833;28;20301;-59
2023/03/19 05:16:24;;;;;;;;;;;;;;;;;;5012985;28;19956;-59
2023/03/19 05:18:50;;;;;;;;;;;;;;;;;;5012834;28;19924;-59
2023/03/19 05:21:16;;;;;;;;;;;;;;;;;;5012434;28;19910;-60
2023/03/19 05:23:42;;;;;;;;;;;;;;;;;;5012614;28;19910;-59
2023/03/19 05:26:08;;;;;;;;;;;;;;;;;;5010795;28;19992;-59
2023/03/19 05:28:34;;;;;;;;;;;;;;;;;;5012686;28;19933;-59
2023/03/19 05:31:00;;;;;;;;;;;;;;;;;;5012365;28;19914;-59
2023/03/19 05:33:26;;;;;;;;;;;;;;;;;;5011910;28;19913;-59
2023/03/19 05:35:52;;;;;;;;;;;;;;;;;;5011667;28;20016;-59
2023/03/19 05:38:17;;;;;;;;;;;;;;;;;;5011955;28;20012;-59
2023/03/19 05:40:43;;;;;;;;;;;;;;;;;;5012233;28;19913;-59
2023/03/19 05:43:09;;;;;;;;;;;;;;;;;;5012399;28;20378;-59
2023/03/19 05:45:35;;;;;;;;;;;;;;;;;;5012598;28;19910;-59
2023/03/19 05:48:01;;;;;;;;;;;;;;;;;;5012373;28;20421;-59
2023/03/19 05:50:27;;;;;;;;;;;;;;;;;;5011890;28;19909;-59
2023/03/19 05:52:53;;;;;;;;;;;;;;;;;;5011945;28;19913;-59
2023/03/19 05:55:19;;;;;;;;;;;;;;;;;;5011948;28;19921;-59
2023/03/19 05:57:45;;;;;;;;;;;;;;;;;;5012301;28;20016;-59
2023/03/19 06:00:11;;;;;;;;;;;;;;;;;;5011581;28;20300;-59
2023/03/19 06:02:37;;;;;;;;;;;;;;;;;;5011577;28;19914;-59
2023/03/19 06:05:03;;;;;;;;;;;;;;;;;;5010726;28;19913;-59
2023/03/19 06:07:28;;;;;;;;;;;;;;;;;;5011806;28;20003;-59
2023/03/19 06:09:54;;;;;;;;;;;;;;;;;;5011556;28;19932;-59
2023/03/19 06:12:20;;;;;;;;;;;;;;;;;;5011383;28;20385;-59
2023/03/19 06:14:47;;;;;;;;;;;;;;;;;;5011166;28;19980;-59
2023/03/19 06:17:12;;;;;;;;;;;;;;;;;;5009944;28;19921;-59
2023/03/19 06:19:38;;;;;;;;;;;;;;;;;;5011538;28;19914;-59
2023/03/19 06:22:04;;;;;;;;;;;;;;;;;;5011736;28;20298;-59
2023/03/19 06:24:30;;;;;;;;;;;;;;;;;;5011027;28;19956;-59
2023/03/19 06:26:56;;;;;;;;;;;;;;;;;;5011448;28;19917;-59
2023/03/19 06:29:22;;;;;;;;;;;;;;;;;;5011342;28;19914;-60
2023/03/19 06:31:48;;;;;;;;;;;;;;;;;;5010935;28;19925;-59
2023/03/19 06:34:14;;;;;;;;;;;;;;;;;;5010718;28;20012;-60
2023/03/19 06:36:40;;;;;;;;;;;;;;;;;;5011143;28;19914;-59
2023/03/19 06:39:06;;;;;;;;;;;;;;;;;;5010922;28;19949;-59
2023/03/19 06:41:32;;;;;;;;;;;;;;;;;;5011422;28;20000;-59
2023/03/19 06:43:58;;;;;;;;;;;;;;;;;;5010874;28;20031;-60
2023/03/19 06:46:24;;;;;;;;;;;;;;;;;;5011198;28;19920;-59
2023/03/19 06:48:50;;;;;;;;;;;;;;;;;;5011268;28;19920;-59
2023/03/19 06:51:16;;;;;;;;;;;;;;;;;;5011230;28;20009;-59
2023/03/19 06:53:42;;;;;;;;;;;;;;;;;;5011245;28;19996;-59
2023/03/19 06:56:09;;;;;;;;;;;;;;;;;;5011028;28;20281;-59
2023/03/19 06:58:35;;;;;;;;;;;;;;;;;;5009605;28;19924;-59
2023/03/19 07:01:01;;;;;;;;;;;;;;;;;;5010859;28;19925;-59
2023/03/19 07:03:26;;;;;;;;;;;;;;;;;;5010825;28;19918;-59
2023/03/19 07:05:52;;;;;;;;;;;;;;;;;;5010557;28;19909;-59
2023/03/19 07:08:18;;;;;;;;;;;;;;;;;;5010719;28;20381;-60
2023/03/19 07:10:44;;;;;;;;;;;;;;;;;;5011169;28;19913;-59
2023/03/19 07:13:10;;;;;;;;;;;;;;;;;;5010362;28;19979;-59
2023/03/19 07:15:36;;;;;;;;;;;;;;;;;;5010891;28;20389;-59
2023/03/19 07:18:02;;;;;;;;;;;;;;;;;;5010312;28;19914;-59
2023/03/19 07:20:28;;;;;;;;;;;;;;;;;;5010371;28;20439;-59
2023/03/19 07:22:54;;;;;;;;;;;;;;;;;;5010829;28;19917;-59
2023/03/19 07:25:20;;;;;;;;;;;;;;;;;;5010287;28;19921;-59
2023/03/19 07:27:45;;;;;;;;;;;;;;;;;;5009553;28;19971;-59
2023/03/19 07:30:11;;;;;;;;;;;;;;;;;;5009519;28;19917;-59
2023/03/19 07:32:37;;;;;;;;;;;;;;;;;;5007579;28;19925;-59
2023/03/19 07:35:03;;;;;;;;;;;;;;;;;;5009471;28;19929;-71
2023/03/19 07:37:29;;;;;;;;;;;;;;;;;;5009949;28;20000;-70
2023/03/19 07:39:55;;;;;;;;;;;;;;;;;;5010388;28;20374;-71
2023/03/19 07:42:21;;;;;;;;;;;;;;;;;;5008353;28;19996;-70
2023/03/19 07:44:47;;;;;;;;;;;;;;;;;;5008265;28;19956;-71
2023/03/19 07:47:13;;;;;;;;;;;;;;;;;;5009885;28;20310;-70
2023/03/19 07:49:39;;;;;;;;;;;;;;;;;;5009782;28;19913;-70
2023/03/19 07:52:05;;;;;;;;;;;;;;;;;;5009422;28;20047;-70
2023/03/19 07:54:31;;;;;;;;;;;;;;;;;;5009663;28;19957;-70
2023/03/19 07:56:57;;;;;;;;;;;;;;;;;;5010316;28;19983;-70
2023/03/19 07:59:23;;;;;;;;;;;;;;;;;;5009993;28;19921;-67
2023/03/19 08:01:49;;;;;;;;;;;;;;;;;;5008347;28;20301;-66
2023/03/19 08:04:15;;;;;;;;;;;;;;;;;;5009666;28;20004;-66
2023/03/19 08:06:41;;;;;;;;;;;;;;;;;;5009663;28;20479;-68
2023/03/19 08:09:07;;;;;;;;;;;;;;;;;;5010241;28;19913;-68
2023/03/19 08:11:33;;;;;;;;;;;;;;;;;;5008167;28;19921;-67
2023/03/19 08:13:58;;;;;;;;;;;;;;;;;;5009229;28;19913;-67
2023/03/19 08:16:25;;;;;;;;;;;;;;;;;;5009448;28;20354;-67
2023/03/19 08:18:51;;;;;;;;;;;;;;;;;;5009218;28;19909;-67
2023/03/19 08:21:17;;;;;;;;;;;;;;;;;;5009740;28;19971;-67
2023/03/19 08:23:42;;;;;;;;;;;;;;;;;;5009756;28;19979;-68
2023/03/19 08:26:08;;;;;;;;;;;;;;;;;;5009409;28;20399;-68
2023/03/19 08:28:34;;;;;;;;;;;;;;;;;;5008752;28;20023;-68
2023/03/19 08:31:00;;;;;;;;;;;;;;;;;;5009220;28;19913;-67
2023/03/19 08:33:26;;;;;;;;;;;;;;;;;;5009350;28;19924;-68
2023/03/19 08:35:52;;;;;;;;;;;;;;;;;;5009170;28;19943;-67
2023/03/19 08:38:18;;;;;;;;;;;;;;;;;;5009706;28;19910;-67
2023/03/19 08:40:45;;;;;;;;;;;;;;;;;;5009574;28;19920;-67
2023/03/19 08:43:10;;;;;;;;;;;;;;;;;;5010461;28;19925;-67
2023/03/19 08:45:36;;;;;;;;;;;;;;;;;;5009499;28;19917;-68
2023/03/19 08:48:02;;;;;;;;;;;;;;;;;;5009000;28;20357;-67
2023/03/19 08:50:28;;;;;;;;;;;;;;;;;;5005839;28;19961;-68
2023/03/19 08:52:56;;;;;;;;;;;;;;;;;;5008181;28;20011;-68
2023/03/19 08:55:22;;;;;;;;;;;;;;;;;;5009155;28;20409;-68
2023/03/19 08:57:48;;;;;;;;;;;;;;;;;;5009108;28;19960;-69
2023/03/19 09:00:14;;;;;;;;;;;;;;;;;;5009262;28;19914;-68
2023/03/19 09:02:39;;;;;;;;;;;;;;;;;;5008625;28;20651;-69
2023/03/19 09:05:06;;;;;;;;;;;;;;;;;;5009274;28;19960;-69
2023/03/19 09:07:32;;;;;;;;;;;;;;;;;;5008155;28;19914;-69
2023/03/19 09:09:57;;;;;;;;;;;;;;;;;;5009333;28;19913;-68
2023/03/19 09:12:23;;;;;;;;;;;;;;;;;;5009066;28;20313;-68
2023/03/19 09:14:50;;;;;;;;;;;;;;;;;;5008839;28;19920;-67
2023/03/19 09:17:17;;;;;;;;;;;;;;;;;;5008926;28;20316;-69
2023/03/19 09:19:43;;;;;;;;;;;;;;;;;;5008809;28;19984;-69
2023/03/19 09:22:09;;;;;;;;;;;;;;;;;;5008425;28;20341;-69
2023/03/19 09:24:35;;;;;;;;;;;;;;;;;;5007978;28;19914;-69
2023/03/19 09:27:01;;;;;;;;;;;;;;;;;;5007996;28;19964;-69
2023/03/19 09:29:27;;;;;;;;;;;;;;;;;;5007902;28;20500;-69
2023/03/19 09:31:53;;;;;;;;;;;;;;;;;;5008425;28;19965;-69
2023/03/19 09:34:19;;;;;;;;;;;;;;;;;;5008544;28;19922;-69
2023/03/19 09:36:45;;;;;;;;;;;;;;;;;;5008267;28;19918;-68
2023/03/19 09:39:11;;;;;;;;;;;;;;;;;;5009536;28;20301;-68
2023/03/19 09:41:37;;;;;;;;;;;;;;;;;;5012245;28;19929;-68
2023/03/19 09:44:03;;;;;;;;;;;;;;;;;;5012359;28;20011;-68
2023/03/19 09:46:29;;;;;;;;;;;;;;;;;;5011802;28;19976;-69
2023/03/19 09:48:55;;;;;;;;;;;;;;;;;;5010871;28;20486;-69
2023/03/19 09:51:21;;;;;;;;;;;;;;;;;;5011649;28;20369;-69
2023/03/19 09:53:47;;;;;;;;;;;;;;;;;;5012262;28;19920;-69
2023/03/19 09:56:13;;;;;;;;;;;;;;;;;;4995755;28;20568;-69
2023/03/19 09:58:38;;;;;;;;;;;;;;;;;;4992305;28;20365;-69
2023/03/19 10:01:04;;;;;;;;;;;;;;;;;;4991913;28;19960;-69
2023/03/19 10:03:30;;;;;;;;;;;;;;;;;;4992087;28;19910;-69
2023/03/19 10:05:56;;;;;;;;;;;;;;;;;;4992397;28;19949;-69
2023/03/19 10:08:23;;;;;;;;;;;;;;;;;;4991911;28;19971;-69
2023/03/19 10:10:49;;;;;;;;;;;;;;;;;;4992054;28;19921;-69
2023/03/19 10:13:15;;;;;;;;;;;;;;;;;;4992005;28;20310;-69
2023/03/19 10:15:43;;;;;;;;;;;;;;;;;;4992303;28;19918;-69
2023/03/19 10:18:09;;;;;;;;;;;;;;;;;;4992038;28;19909;-69
2023/03/19 10:20:35;;;;;;;;;;;;;;;;;;4992003;28;19920;-69
2023/03/19 10:23:02;;;;;;;;;;;;;;;;;;4992165;28;19948;-69
2023/03/19 10:25:28;;;;;;;;;;;;;;;;;;4997289;28;19917;-69
2023/03/19 10:27:54;;;;;;;;;;;;;;;;;;5011748;28;19921;-69
2023/03/19 10:30:20;;;;;;;;;;;;;;;;;;5011539;28;19967;-69
2023/03/19 10:32:46;;;;;;;;;;;;;;;;;;5011183;28;19925;-69
2023/03/19 10:35:12;;;;;;;;;;;;;;;;;;5011033;28;19917;-69
2023/03/19 10:37:38;;;;;;;;;;;;;;;;;;5011489;28;19925;-69
2023/03/19 10:40:04;;;;;;;;;;;;;;;;;;5011181;28;19918;-69
2023/03/19 10:42:29;;;;;;;;;;;;;;;;;;5011664;28;20440;-69
2023/03/19 10:44:55;;;;;;;;;;;;;;;;;;4993496;28;20330;-69
2023/03/19 10:47:21;;;;;;;;;;;;;;;;;;4991507;28;19914;-68
2023/03/19 10:49:47;;;;;;;;;;;;;;;;;;4990877;28;19965;-68
2023/03/19 10:52:13;;;;;;;;;;;;;;;;;;4991252;28;19968;-68
2023/03/19 10:54:39;;;;;;;;;;;;;;;;;;4991218;28;19914;-68
2023/03/19 10:57:05;;;;;;;;;;;;;;;;;;5008633;28;19972;-69
2023/03/19 10:59:32;;;;;;;;;;;;;;;;;;5011129;28;19913;-69
2023/03/19 11:01:58;;;;;;;;;;;;;;;;;;5011014;28;20386;-69
2023/03/19 11:04:25;;;;;;;;;;;;;;;;;;5011331;28;19913;-69
2023/03/19 11:06:51;;;;;;;;;;;;;;;;;;5010914;28;19905;-69
2023/03/19 11:09:18;;;;;;;;;;;;;;;;;;5010811;28;19925;-68
2023/03/19 11:11:44;;;;;;;;;;;;;;;;;;5010882;28;19916;-69
2023/03/19 11:14:10;;;;;;;;;;;;;;;;;;5011035;28;19910;-68
2023/03/19 11:16:36;;;;;;;;;;;;;;;;;;5011501;28;19914;-68
2023/03/19 11:19:03;;;;;;;;;;;;;;;;;;5010980;28;19995;-69
2023/03/19 11:21:29;;;;;;;;;;;;;;;;;;5010589;28;19948;-69
2023/03/19 11:23:56;;;;;;;;;;;;;;;;;;5010544;28;19913;-66
2023/03/19 11:26:23;;;;;;;;;;;;;;;;;;5010496;28;20012;-69
2023/03/19 11:28:49;;;;;;;;;;;;;;;;;;5010349;28;19913;-69
2023/03/19 11:31:15;;;;;;;;;;;;;;;;;;5010419;28;20650;-69
2023/03/19 11:33:41;;;;;;;;;;;;;;;;;;5008547;28;19921;-69
2023/03/19 11:36:07;;;;;;;;;;;;;;;;;;5010366;28;19918;-69
2023/03/19 11:38:33;;;;;;;;;;;;;;;;;;5010314;28;19929;-68
2023/03/19 11:41:00;;;;;;;;;;;;;;;;;;5010424;28;19921;-68
2023/03/19 11:43:27;;;;;;;;;;;;;;;;;;5010680;28;19921;-69
2023/03/19 11:45:53;;;;;;;;;;;;;;;;;;5009912;28;20008;-68
2023/03/19 11:48:19;;;;;;;;;;;;;;;;;;5010500;28;19980;-69
2023/03/19 11:50:46;;;;;;;;;;;;;;;;;;5010470;28;20009;-69
2023/03/19 11:53:12;;;;;;;;;;;;;;;;;;5010118;28;19921;-68
2023/03/19 11:55:38;;;;;;;;;;;;;;;;;;5009559;28;19921;-69
2023/03/19 11:58:04;;;;;;;;;;;;;;;;;;5009646;28;19917;-69
2023/03/19 12:00:30;;;;;;;;;;;;;;;;;;5009887;28;20000;-68
2023/03/19 12:02:56;;;;;;;;;;;;;;;;;;5008837;28;20275;-69
2023/03/19 12:05:22;;;;;;;;;;;;;;;;;;5009856;28;19963;-69
2023/03/19 12:07:47;;;;;;;;;;;;;;;;;;5009643;28;19921;-68
2023/03/19 12:10:14;;;;;;;;;;;;;;;;;;5009357;28;20362;-69
2023/03/19 12:12:40;;;;;;;;;;;;;;;;;;5009339;28;19920;-69
2023/03/19 12:15:07;;;;;;;;;;;;;;;;;;5009533;28;19913;-69
2023/03/19 12:17:33;;;;;;;;;;;;;;;;;;5010244;28;19913;-68
2023/03/19 12:19:59;;;;;;;;;;;;;;;;;;5009385;28;19921;-68
2023/03/19 12:22:25;;;;;;;;;;;;;;;;;;5009381;28;19924;-67
2023/03/19 12:24:51;;;;;;;;;;;;;;;;;;5008999;28;19916;-68
2023/03/19 12:27:17;;;;;;;;;;;;;;;;;;5008793;28;19921;-68
2023/03/19 12:29:43;;;;;;;;;;;;;;;;;;5009413;28;19929;-68
2023/03/19 12:32:09;;;;;;;;;;;;;;;;;;5009053;28;19929;-68
2023/03/19 12:34:35;;;;;;;;;;;;;;;;;;5012829;28;19933;-68
2023/03/19 12:37:01;;;;;;;;;;;;;;;;;;5009558;28;20000;-68
2023/03/19 12:39:27;;;;;;;;;;;;;;;;;;5009046;28;19913;-68
2023/03/19 12:41:53;;;;;;;;;;;;;;;;;;5007961;28;19921;-68
2023/03/19 12:44:19;;;;;;;;;;;;;;;;;;5008775;28;20646;-67
2023/03/19 12:46:45;;;;;;;;;;;;;;;;;;5008829;28;19913;-67
2023/03/19 12:49:11;;;;;;;;;;;;;;;;;;5009468;28;20300;-68
2023/03/19 12:51:37;;;;;;;;;;;;;;;;;;5009603;28;19920;-68
2023/03/19 12:54:03;;;;;;;;;;;;;;;;;;5009395;28;19909;-68
2023/03/19 12:56:29;;;;;;;;;;;;;;;;;;5008892;28;19928;-68
2023/03/19 12:58:55;;;;;;;;;;;;;;;;;;5008656;28;20382;-69
2023/03/19 13:01:21;;;;;;;;;;;;;;;;;;5008923;28;19917;-68
2023/03/19 13:03:46;;;;;;;;;;;;;;;;;;5008765;28;19909;-68
2023/03/19 13:06:12;;;;;;;;;;;;;;;;;;5009123;28;19916;-68
2023/03/19 13:08:38;;;;;;;;;;;;;;;;;;5009163;28;19973;-69
2023/03/19 13:11:05;;;;;;;;;;;;;;;;;;5008864;28;20185;-69
2023/03/19 13:13:31;;;;;;;;;;;;;;;;;;5010827;28;19938;-68
2023/03/19 13:15:56;;;;;;;;;;;;;;;;;;5012281;28;19917;-68
2023/03/19 13:18:22;;;;;;;;;;;;;;;;;;5012513;28;19909;-69
2023/03/19 13:20:48;;;;;;;;;;;;;;;;;;5012971;28;19921;-68
2023/03/19 13:31:02;;;;;;;;;;;;;;;;;;5458695;23;19930;-52
2023/03/19 13:33:28;;;;;;;;;;;;;;;;;;5006145;28;19936;-52
2023/03/19 13:35:54;;;;;;;;;;;;;;;;;;4995732;28;19922;-54
2023/03/19 13:38:20;;;;;;;;;;;;;;;;;;4996596;28;19917;-51
2023/03/19 13:40:46;;;;;;;;;;;;;;;;;;4999699;28;19918;-55
2023/03/19 13:43:12;;;;;;;;;;;;;;;;;;5006012;28;19920;-54
2023/03/19 13:45:38;;;;;;;;;;;;;;;;;;5003414;28;19924;-55
2023/03/19 13:48:04;;;;;;;;;;;;;;;;;;5003636;28;19963;-50
2023/03/19 13:50:30;;;;;;;;;;;;;;;;;;5007207;28;19917;-52
2023/03/19 13:52:56;;;;;;;;;;;;;;;;;;5003292;28;19917;-54
2023/03/19 13:55:22;;;;;;;;;;;;;;;;;;4992791;28;19929;-53
2023/03/19 13:57:48;;;;;;;;;;;;;;;;;;4992190;28;19913;-54
2023/03/19 14:00:15;;;;;;;;;;;;;;;;;;4991895;28;19953;-55
2023/03/19 14:10:35;;;;;;;;;;;;;;;;;;5100727;23;19958;-63
2023/03/19 14:13:01;;;;;;;;;;;;;;;;;;5043011;28;19952;-61
2023/03/19 14:15:27;;;;;;;;;;;;;;;;;;5035368;28;19923;-62
2023/03/19 14:17:53;;;;;;;;;;;;;;;;;;5046228;28;20290;-62
2023/03/19 14:20:18;;;;;;;;;;;;;;;;;;5035743;28;19984;-61
2023/03/19 14:22:44;;;;;;;;;;;;;;;;;;5031358;28;19922;-62
2023/03/19 14:25:10;;;;;;;;;;;;;;;;;;5035146;28;20329;-62
2023/03/19 14:27:37;;;;;;;;;;;;;;;;;;5051489;28;20395;-61
2023/03/19 14:30:02;;;;;;;;;;;;;;;;;;5049856;28;19919;-62
2023/03/19 14:32:28;;;;;;;;;;;;;;;;;;5051683;28;19917;-62
2023/03/19 14:34:54;;;;;;;;;;;;;;;;;;5051420;28;19951;-61
2023/03/19 14:37:20;;;;;;;;;;;;;;;;;;5050985;28;19913;-62
2023/03/19 14:39:46;;;;;;;;;;;;;;;;;;5051192;28;20399;-61
2023/03/19 14:42:12;;;;;;;;;;;;;;;;;;5050001;28;19959;-62
2023/03/19 14:44:38;;;;;;;;;;;;;;;;;;5051496;28;20454;-62
2023/03/19 14:47:04;;;;;;;;;;;;;;;;;;5051584;28;19951;-65
2023/03/19 14:49:30;;;;;;;;;;;;;;;;;;5050432;28;19956;-63
2023/03/19 14:51:56;;;;;;;;;;;;;;;;;;5051292;28;19921;-63
2023/03/19 14:54:22;;;;;;;;;;;;;;;;;;5050936;28;20019;-63
2023/03/19 14:56:49;;;;;;;;;;;;;;;;;;5051171;28;19909;-63
2023/03/19 14:59:17;;;;;;;;;;;;;;;;;;5051803;28;19920;-63
2023/03/19 15:01:43;;;;;;;;;;;;;;;;;;5050899;28;20547;-63
2023/03/19 15:04:08;;;;;;;;;;;;;;;;;;5051154;28;20428;-62
2023/03/19 15:06:35;;;;;;;;;;;;;;;;;;5050834;28;19916;-63
2023/03/19 15:09:01;;;;;;;;;;;;;;;;;;5049916;28;19931;-62
2023/03/19 15:11:27;;;;;;;;;;;;;;;;;;5050549;28;19913;-62
2023/03/19 15:13:53;;;;;;;;;;;;;;;;;;5051414;28;20448;-63
2023/03/19 15:16:19;;;;;;;;;;;;;;;;;;5050923;28;19936;-62
2023/03/19 15:18:44;;;;;;;;;;;;;;;;;;5051257;28;20293;-63
2023/03/19 15:21:10;;;;;;;;;;;;;;;;;;5050875;28;19954;-63
2023/03/19 15:23:36;;;;;;;;;;;;;;;;;;5050063;28;19913;-63
2023/03/19 15:26:02;;;;;;;;;;;;;;;;;;5050068;28;19925;-63
2023/03/19 15:28:28;;;;;;;;;;;;;;;;;;5050630;28;19915;-63
2023/03/19 15:30:55;;;;;;;;;;;;;;;;;;5050578;28;19912;-63
2023/03/19 15:33:27;;;;;;;;;;;;;;;;;;5050510;28;19994;-63
2023/03/19 15:35:53;;;;;;;;;;;;;;;;;;5049811;28;19917;-63
2023/03/19 15:38:19;;;;;;;;;;;;;;;;;;5049530;28;19962;-63
2023/03/19 15:40:45;;;;;;;;;;;;;;;;;;5050407;28;19916;-64
2023/03/19 15:43:11;;;;;;;;;;;;;;;;;;5048422;28;19909;-64
2023/03/19 15:45:37;;;;;;;;;;;;;;;;;;5029803;28;19967;-62
2023/03/19 15:48:03;;;;;;;;;;;;;;;;;;5030101;28;19917;-61
2023/03/19 15:50:29;;;;;;;;;;;;;;;;;;5029993;28;19913;-62
2023/03/19 15:52:55;;;;;;;;;;;;;;;;;;5029774;28;19913;-62
2023/03/19 15:55:21;;;;;;;;;;;;;;;;;;5029776;28;20270;-62
2023/03/19 15:57:47;;;;;;;;;;;;;;;;;;5030120;28;19918;-61
2023/03/19 16:00:12;;;;;;;;;;;;;;;;;;5029872;28;19935;-62
2023/03/19 16:02:39;;;;;;;;;;;;;;;;;;5030470;28;19913;-63
2023/03/19 16:05:04;;;;;;;;;;;;;;;;;;5029751;28;20003;-61
2023/03/19 16:07:31;;;;;;;;;;;;;;;;;;5041015;28;20007;-62
2023/03/19 16:09:57;;;;;;;;;;;;;;;;;;5049615;28;19960;-62
2023/03/19 16:12:23;;;;;;;;;;;;;;;;;;5048393;28;19986;-62
2023/03/19 16:14:49;;;;;;;;;;;;;;;;;;5049926;28;19916;-62
2023/03/19 16:17:15;;;;;;;;;;;;;;;;;;5050081;28;19915;-61
2023/03/19 16:19:41;;;;;;;;;;;;;;;;;;5049927;28;19917;-61
2023/03/19 16:22:07;;;;;;;;;;;;;;;;;;5050084;28;20377;-61
2023/03/19 16:24:34;;;;;;;;;;;;;;;;;;5049643;28;19995;-62
2023/03/19 16:27:00;;;;;;;;;;;;;;;;;;5048039;28;19909;-62
2023/03/19 16:29:26;;;;;;;;;;;;;;;;;;5049489;28;19919;-63
2023/03/19 16:31:52;;;;;;;;;;;;;;;;;;5049948;28;20450;-63
2023/03/19 16:34:18;;;;;;;;;;;;;;;;;;5049005;28;19913;-63
2023/03/19 16:36:44;;;;;;;;;;;;;;;;;;5049444;28;19913;-64
2023/03/19 16:39:10;;;;;;;;;;;;;;;;;;5049483;28;19968;-64
2023/03/19 16:41:36;;;;;;;;;;;;;;;;;;5043002;28;19917;-62
2023/03/19 16:44:02;;;;;;;;;;;;;;;;;;5038229;28;20445;-63
2023/03/19 16:46:27;;;;;;;;;;;;;;;;;;5039414;28;20016;-62
2023/03/19 16:48:53;;;;;;;;;;;;;;;;;;5048412;28;20327;-62
2023/03/19 16:51:19;;;;;;;;;;;;;;;;;;5033241;28;19943;-63
2023/03/19 16:53:45;;;;;;;;;;;;;;;;;;5042832;28;19935;-63